Time;durP1;ratioP1;P1;durP2;ratioP2;P2;SDS_P1;SDS_P2;PMS_P1;PMS_P2;Temp;Humidity;BMP_temperature;BMP_pressure;BME280_temperature;BME280_humidity;BME280_pressure;Samples;Min_cycle;Max_cycle;Signal;HPM_P1;HPM_P2
2022/06/17 00:02:07;;;;;;;11.98;7.55;;;;;;;;;;5050374;28;20087;-71
2022/06/17 00:04:33;;;;;;;10.20;7.78;;;;;;;;;;5052412;28;20483;-72
2022/06/17 00:07:02;;;;;;;10.05;6.97;;;;;;;;;;5052711;28;20140;-72
2022/06/17 00:09:30;;;;;;;10.40;7.30;;;;;;;;;;5052120;28;20049;-71
2022/06/17 00:11:56;;;;;;;9.70;7.05;;;;;;;;;;5051228;28;20415;-71
2022/06/17 00:14:23;;;;;;;10.75;7.13;;;;;;;;;;5051796;28;20562;-72
2022/06/17 00:16:49;;;;;;;12.30;7.03;;;;;;;;;;5034460;28;20071;-72
2022/06/17 00:19:18;;;;;;;9.63;6.15;;;;;;;;;;5052774;28;20041;-71
2022/06/17 00:21:45;;;;;;;9.38;6.32;;;;;;;;;;5053532;28;20056;-71
2022/06/17 00:24:17;;;;;;;9.20;6.40;;;;;;;;;;5050815;28;20063;-71
2022/06/17 00:26:44;;;;;;;10.00;6.20;;;;;;;;;;5032930;28;20045;-72
2022/06/17 00:29:11;;;;;;;9.52;5.75;;;;;;;;;;5048898;28;20053;-72
2022/06/17 00:31:37;;;;;;;8.85;5.82;;;;;;;;;;5053338;28;20128;-71
2022/06/17 00:34:03;;;;;;;8.25;5.60;;;;;;;;;;5049569;28;20072;-71
2022/06/17 00:36:29;;;;;;;11.50;6.20;;;;;;;;;;5035758;28;20041;-71
2022/06/17 00:38:55;;;;;;;9.55;6.65;;;;;;;;;;5040714;28;20052;-72
2022/06/17 00:41:29;;;;;;;8.73;6.72;;;;;;;;;;5049173;28;20049;-71
2022/06/17 00:43:56;;;;;;;10.32;6.72;;;;;;;;;;5050840;28;20046;-71
2022/06/17 00:46:25;;;;;;;10.88;7.15;;;;;;;;;;5051543;28;20404;-72
2022/06/17 00:48:53;;;;;;;9.68;7.30;;;;;;;;;;5049470;28;20380;-71
2022/06/17 00:51:22;;;;;;;11.88;7.47;;;;;;;;;;5051676;28;20068;-72
2022/06/17 00:53:54;;;;;;;10.88;7.82;;;;;;;;;;5051999;28;20099;-71
2022/06/17 00:56:25;;;;;;;9.55;8.02;;;;;;;;;;5033266;28;20037;-71
2022/06/17 00:58:51;;;;;;;;;;;;;;;;;;5050633;28;20052;-71
2022/06/17 01:01:17;;;;;;;10.57;7.45;;;;;;;;;;5052893;28;20303;-71
2022/06/17 01:03:44;;;;;;;13.05;8.07;;;;;;;;;;5050367;28;20041;-71
2022/06/17 01:06:13;;;;;;;11.02;8.05;;;;;;;;;;5050216;28;20051;-71
2022/06/17 01:11:33;;;;;;;12.55;8.45;;;;;;;;;;5051642;28;20124;-72
2022/06/17 01:14:00;;;;;;;12.77;8.30;;;;;;;;;;5030996;28;20572;-72
2022/06/17 01:16:28;;;;;;;11.90;8.38;;;;;;;;;;5051449;28;20582;-72
2022/06/17 01:18:55;;;;;;;13.20;8.73;;;;;;;;;;5050712;28;20037;-71
2022/06/17 01:21:28;;;;;;;11.07;8.57;;;;;;;;;;5052764;28;20117;-71
2022/06/17 01:23:55;;;;;;;10.65;9.43;;;;;;;;;;5051372;28;20407;-71
2022/06/17 01:26:21;;;;;;;12.73;9.73;;;;;;;;;;5050865;28;20052;-72
2022/06/17 01:28:47;;;;;;;10.98;9.20;;;;;;;;;;5049254;28;20446;-71
2022/06/17 01:31:13;;;;;;;11.27;8.82;;;;;;;;;;5034659;28;20415;-71
2022/06/17 01:33:41;;;;;;;13.27;9.32;;;;;;;;;;5048957;28;20049;-71
2022/06/17 01:36:26;;;;;;;12.02;9.55;;;;;;;;;;5051022;28;20049;-72
2022/06/17 01:38:55;;;;;;;13.10;9.48;;;;;;;;;;5050346;28;20115;-71
2022/06/17 01:41:24;;;;;;;11.55;9.65;;;;;;;;;;5045520;28;20052;-71
2022/06/17 01:43:53;;;;;;;11.18;9.40;;;;;;;;;;5053590;28;20051;-71
2022/06/17 01:46:22;;;;;;;11.30;9.60;;;;;;;;;;5035155;28;20041;-71
2022/06/17 01:48:59;;;;;;;13.68;10.13;;;;;;;;;;5052948;28;20483;-72
2022/06/17 01:51:26;;;;;;;13.43;9.45;;;;;;;;;;5054916;28;20068;-71
2022/06/17 01:53:56;;;;;;;10.95;9.40;;;;;;;;;;5053901;28;20056;-71
2022/06/17 01:56:23;;;;;;;14.43;9.68;;;;;;;;;;5054878;28;20112;-71
2022/06/17 01:58:57;;;;;;;12.63;9.35;;;;;;;;;;5055315;28;20044;-71
2022/06/17 02:01:25;;;;;;;10.20;8.90;;;;;;;;;;5056149;28;20411;-72
2022/06/17 02:03:55;;;;;;;14.43;9.88;;;;;;;;;;5047336;28;20445;-71
2022/06/17 02:06:30;;;;;;;13.45;10.60;;;;;;;;;;5035982;28;20092;-71
2022/06/17 02:08:56;;;;;;;11.60;10.40;;;;;;;;;;5042162;28;20462;-71
2022/06/17 02:11:22;;;;;;;13.90;9.27;;;;;;;;;;5036252;28;20048;-72
2022/06/17 02:13:49;;;;;;;14.38;10.38;;;;;;;;;;5054887;28;20056;-71
2022/06/17 02:16:16;;;;;;;14.68;10.40;;;;;;;;;;5056122;28;20036;-71
2022/06/17 02:18:44;;;;;;;12.32;10.52;;;;;;;;;;5049303;28;20064;-70
2022/06/17 02:21:13;;;;;;;14.20;12.23;;;;;;;;;;5052806;28;20048;-71
2022/06/17 02:23:39;;;;;;;12.25;10.70;;;;;;;;;;5055840;28;20076;-71
2022/06/17 02:26:06;;;;;;;18.42;11.65;;;;;;;;;;5055099;28;20041;-71
2022/06/17 02:28:33;;;;;;;12.65;11.15;;;;;;;;;;5053486;28;20048;-71
2022/06/17 02:31:00;;;;;;;15.10;11.45;;;;;;;;;;5055007;28;20080;-72
2022/06/17 02:33:27;;;;;;;13.32;10.82;;;;;;;;;;5051495;28;20052;-71
2022/06/17 02:35:56;;;;;;;13.50;10.60;;;;;;;;;;5037615;28;20080;-70
2022/06/17 02:38:25;;;;;;;15.75;11.23;;;;;;;;;;5054906;28;20044;-70
2022/06/17 02:41:00;;;;;;;12.52;10.75;;;;;;;;;;5036968;28;20411;-72
2022/06/17 02:43:30;;;;;;;13.88;11.32;;;;;;;;;;5055459;28;20064;-71
2022/06/17 02:46:01;;;;;;;15.15;10.98;;;;;;;;;;5034624;28;20049;-72
2022/06/17 02:48:28;;;;;;;13.93;11.40;;;;;;;;;;5035621;28;20125;-71
2022/06/17 02:50:56;;;;;;;13.75;11.35;;;;;;;;;;5053740;28;20049;-71
2022/06/17 02:53:27;;;;;;;13.55;11.32;;;;;;;;;;5053699;28;20045;-70
2022/06/17 02:55:53;;;;;;;13.50;10.93;;;;;;;;;;5052668;28;20399;-70
2022/06/17 02:58:31;;;;;;;14.02;11.07;;;;;;;;;;5052155;28;20045;-70
2022/06/17 03:00:58;;;;;;;12.55;11.23;;;;;;;;;;5052850;28;20041;-71
2022/06/17 03:03:24;;;;;;;12.23;10.93;;;;;;;;;;5052322;28;20127;-71
2022/06/17 03:05:51;;;;;;;14.48;11.05;;;;;;;;;;5054430;28;20575;-71
2022/06/17 03:08:19;;;;;;;17.25;12.05;;;;;;;;;;5035570;28;20103;-70
2022/06/17 03:10:45;;;;;;;16.98;11.82;;;;;;;;;;5053664;28;20487;-70
2022/06/17 03:13:19;;;;;;;13.48;11.00;;;;;;;;;;5053629;28;20048;-70
2022/06/17 03:15:47;;;;;;;15.65;11.70;;;;;;;;;;5046426;28;20045;-71
2022/06/17 03:18:13;;;;;;;17.55;11.00;;;;;;;;;;5049229;28;20573;-71
2022/06/17 03:20:40;;;;;;;13.38;11.02;;;;;;;;;;5051669;28;20414;-72
2022/06/17 03:23:13;;;;;;;13.93;11.52;;;;;;;;;;5053870;28;20052;-72
2022/06/17 03:25:59;;;;;;;15.73;11.23;;;;;;;;;;5035916;28;20060;-70
2022/06/17 03:28:35;;;;;;;12.77;11.27;;;;;;;;;;5050835;28;20048;-70
2022/06/17 03:31:04;;;;;;;12.55;11.18;;;;;;;;;;5053897;28;20049;-71
2022/06/17 03:33:34;;;;;;;13.38;11.27;;;;;;;;;;5050605;28;20041;-71
2022/06/17 03:36:12;;;;;;;13.38;11.10;;;;;;;;;;5049241;28;20040;-71
2022/06/17 03:38:44;;;;;;;16.02;12.02;;;;;;;;;;5033257;28;20037;-71
2022/06/17 03:41:18;;;;;;;14.05;11.57;;;;;;;;;;5030652;28;20057;-71
2022/06/17 03:44:16;;;;;;;17.33;11.93;;;;;;;;;;5053090;28;20092;-71
2022/06/17 03:46:46;;;;;;;18.70;13.13;;;;;;;;;;5009582;28;20046;-71
2022/06/17 03:49:15;;;;;;;16.90;12.30;;;;;;;;;;5011751;28;20062;-72
2022/06/17 03:51:49;;;;;;;15.65;12.93;;;;;;;;;;5009301;28;20050;-72
2022/06/17 03:54:16;;;;;;;13.27;11.05;;;;;;;;;;5011577;28;20050;-71
2022/06/17 03:56:45;;;;;;;14.68;11.23;;;;;;;;;;4994441;28;20062;-71
2022/06/17 03:59:16;;;;;;;13.50;11.13;;;;;;;;;;5003100;28;20089;-71
2022/06/17 04:01:44;;;;;;;15.60;10.93;;;;;;;;;;5011209;28;20056;-70
2022/06/17 04:04:15;;;;;;;14.80;11.07;;;;;;;;;;5009910;28;20073;-70
2022/06/17 04:06:43;;;;;;;15.73;11.65;;;;;;;;;;4995587;28;20045;-71
2022/06/17 04:09:18;;;;;;;13.90;12.23;;;;;;;;;;4993646;28;20443;-71
2022/06/17 04:11:45;;;;;;;14.15;11.60;;;;;;;;;;5010176;28;20046;-71
2022/06/17 04:14:17;;;;;;;12.68;11.02;;;;;;;;;;5010830;28;20078;-70
2022/06/17 04:17:04;;;;;;;12.90;11.23;;;;;;;;;;5003827;28;20050;-71
2022/06/17 04:19:31;;;;;;;15.73;11.25;;;;;;;;;;5011561;28;20049;-70
2022/06/17 04:22:00;;;;;;;12.77;10.05;;;;;;;;;;5019110;28;20092;-71
2022/06/17 04:24:27;;;;;;;12.80;10.35;;;;;;;;;;5033596;28;20077;-71
2022/06/17 04:26:55;;;;;;;14.05;10.45;;;;;;;;;;5050060;28;20072;-71
2022/06/17 04:29:34;;;;;;;11.68;10.48;;;;;;;;;;5049735;28;20053;-71
2022/06/17 04:32:02;;;;;;;14.40;10.27;;;;;;;;;;5033919;28;20041;-71
2022/06/17 04:34:28;;;;;;;12.13;9.93;;;;;;;;;;5051529;28;20032;-70
2022/06/17 04:37:02;;;;;;;13.35;10.23;;;;;;;;;;5052834;28;20037;-70
2022/06/17 04:39:34;;;;;;;15.18;10.23;;;;;;;;;;5048868;28;20456;-70
2022/06/17 04:42:02;;;;;;;15.15;10.82;;;;;;;;;;5050309;28;20064;-71
2022/06/17 04:44:28;;;;;;;14.93;10.48;;;;;;;;;;5032548;28;20120;-71
2022/06/17 04:47:14;;;;;;;14.90;10.60;;;;;;;;;;5052757;28;20052;-72
2022/06/17 04:49:45;;;;;;;12.50;11.20;;;;;;;;;;5045413;28;20060;-72
2022/06/17 04:52:36;;;;;;;17.52;11.38;;;;;;;;;;5050313;28;20483;-71
2022/06/17 04:55:07;;;;;;;15.00;11.75;;;;;;;;;;5025190;28;20144;-71
2022/06/17 04:57:34;;;;;;;16.85;11.90;;;;;;;;;;5048451;28;20095;-70
2022/06/17 05:00:00;;;;;;;16.23;12.27;;;;;;;;;;5052209;28;20116;-71
2022/06/17 05:02:30;;;;;;;15.52;12.05;;;;;;;;;;5050961;28;20037;-71
2022/06/17 05:05:01;;;;;;;15.15;12.45;;;;;;;;;;5024689;28;20040;-71
2022/06/17 05:07:29;;;;;;;16.00;11.75;;;;;;;;;;5051523;28;20049;-71
2022/06/17 05:09:57;;;;;;;15.50;12.27;;;;;;;;;;5051101;28;20049;-71
2022/06/17 05:12:32;;;;;;;16.58;12.30;;;;;;;;;;5052238;28;20041;-71
2022/06/17 05:15:06;;;;;;;15.05;12.48;;;;;;;;;;5051402;28;20049;-71
2022/06/17 05:17:33;;;;;;;14.10;11.98;;;;;;;;;;5051036;28;20120;-72
2022/06/17 05:19:59;;;;;;;14.88;12.20;;;;;;;;;;5051800;28;20041;-71
2022/06/17 05:22:42;;;;;;;14.77;11.40;;;;;;;;;;5051594;28;20045;-70
2022/06/17 05:25:14;;;;;;;16.75;12.23;;;;;;;;;;5052612;28;20080;-72
2022/06/17 05:27:40;;;;;;;14.40;12.90;;;;;;;;;;5047453;28;20456;-71
2022/06/17 05:30:06;;;;;;;18.00;13.05;;;;;;;;;;5045078;28;20048;-71
2022/06/17 05:32:32;;;;;;;13.98;12.02;;;;;;;;;;5050675;28;20098;-69
2022/06/17 05:34:58;;;;;;;18.58;12.63;;;;;;;;;;5049231;28;20464;-71
2022/06/17 05:37:25;;;;;;;19.15;11.82;;;;;;;;;;5046373;28;20041;-71
2022/06/17 05:39:51;;;;;;;13.18;10.95;;;;;;;;;;5046235;28;20057;-71
2022/06/17 05:42:17;;;;;;;13.00;11.25;;;;;;;;;;5032645;28;20136;-70
2022/06/17 05:44:43;;;;;;;15.68;11.30;;;;;;;;;;5051787;28;20132;-70
2022/06/17 05:47:09;;;;;;;12.35;10.77;;;;;;;;;;5052259;28;20045;-72
2022/06/17 05:49:35;;;;;;;14.95;11.13;;;;;;;;;;5052308;28;20049;-71
2022/06/17 05:52:01;;;;;;;13.95;10.73;;;;;;;;;;5051496;28;20047;-70
2022/06/17 05:54:27;;;;;;;15.18;11.57;;;;;;;;;;5052141;28;20570;-71
2022/06/17 05:56:53;;;;;;;14.73;12.35;;;;;;;;;;5052146;28;20550;-70
2022/06/17 05:59:19;;;;;;;14.07;11.98;;;;;;;;;;5052108;28;20045;-71
2022/06/17 06:01:45;;;;;;;15.88;12.48;;;;;;;;;;5050076;28;20049;-69
2022/06/17 06:04:11;;;;;;;15.18;11.82;;;;;;;;;;5050719;28;20040;-70
2022/06/17 06:06:37;;;;;;;13.80;11.32;;;;;;;;;;5051882;28;20483;-70
2022/06/17 06:09:03;;;;;;;14.32;11.57;;;;;;;;;;5051167;28;20453;-70
2022/06/17 06:11:29;;;;;;;13.60;11.15;;;;;;;;;;5050374;28;20049;-71
2022/06/17 06:13:55;;;;;;;17.70;11.13;;;;;;;;;;5051971;28;20179;-71
2022/06/17 06:16:21;;;;;;;13.00;10.63;;;;;;;;;;5033353;28;20127;-70
2022/06/17 06:18:50;;;;;;;15.63;11.23;;;;;;;;;;5050035;28;20041;-70
2022/06/17 06:21:16;;;;;;;17.10;10.50;;;;;;;;;;5051918;28;20052;-70
2022/06/17 06:23:42;;;;;;;15.70;10.95;;;;;;;;;;5051800;28;20041;-70
2022/06/17 06:26:12;;;;;;;15.43;11.23;;;;;;;;;;5051914;28;20088;-70
2022/06/17 06:28:38;;;;;;;13.13;9.65;;;;;;;;;;5051369;28;20044;-70
2022/06/17 06:31:05;;;;;;;14.70;10.38;;;;;;;;;;5021130;28;20076;-71
2022/06/17 06:33:32;;;;;;;13.00;9.77;;;;;;;;;;5054226;28;20045;-71
2022/06/17 06:35:59;;;;;;;13.55;9.93;;;;;;;;;;5053965;28;20037;-71
2022/06/17 06:38:25;;;;;;;17.08;9.52;;;;;;;;;;5050277;28;20041;-71
2022/06/17 06:40:51;;;;;;;14.68;10.30;;;;;;;;;;5038567;28;20053;-71
2022/06/17 06:43:18;;;;;;;14.18;10.02;;;;;;;;;;5055165;28;20053;-70
2022/06/17 06:45:46;;;;;;;12.70;9.98;;;;;;;;;;5020722;28;20053;-71
2022/06/17 06:48:13;;;;;;;13.70;10.30;;;;;;;;;;5051841;28;20040;-72
2022/06/17 06:50:40;;;;;;;13.18;10.25;;;;;;;;;;5052553;28;20453;-69
2022/06/17 06:53:06;;;;;;;13.75;9.68;;;;;;;;;;5053185;28;20102;-72
2022/06/17 06:55:34;;;;;;;15.38;10.23;;;;;;;;;;5052687;28;20044;-72
2022/06/17 06:58:04;;;;;;;12.38;10.10;;;;;;;;;;5052089;28;20041;-72
2022/06/17 07:00:30;;;;;;;13.55;9.98;;;;;;;;;;5052414;28;20052;-72
2022/06/17 07:02:57;;;;;;;16.25;10.55;;;;;;;;;;5053074;28;20052;-72
2022/06/17 07:05:23;;;;;;;16.15;10.75;;;;;;;;;;5052700;28;20041;-71
2022/06/17 07:07:49;;;;;;;14.18;10.63;;;;;;;;;;5054158;28;20092;-72
2022/06/17 07:10:17;;;;;;;11.63;10.15;;;;;;;;;;5051349;28;20045;-72
2022/06/17 07:12:43;;;;;;;15.50;11.07;;;;;;;;;;5034451;28;20056;-72
2022/06/17 07:15:11;;;;;;;12.77;10.75;;;;;;;;;;5053052;28;20079;-72
2022/06/17 07:17:37;;;;;;;13.35;9.63;;;;;;;;;;5052552;28;20056;-72
2022/06/17 07:20:03;;;;;;;12.02;10.05;;;;;;;;;;5052164;28;20037;-71
2022/06/17 07:22:29;;;;;;;10.98;9.68;;;;;;;;;;5052882;28;20509;-71
2022/06/17 07:24:55;;;;;;;11.82;9.45;;;;;;;;;;5053162;28;20049;-69
2022/06/17 07:27:21;;;;;;;14.18;9.93;;;;;;;;;;5045158;28;20037;-71
2022/06/17 07:29:47;;;;;;;12.90;9.35;;;;;;;;;;5054171;28;20511;-70
2022/06/17 07:32:13;;;;;;;16.15;9.93;;;;;;;;;;5049410;28;20045;-71
2022/06/17 07:34:39;;;;;;;12.65;9.55;;;;;;;;;;5049730;28;20059;-70
2022/06/17 07:39:58;;;;;;;11.43;8.60;;;;;;;;;;5049571;28;20060;-72
2022/06/17 07:42:25;;;;;;;11.50;8.82;;;;;;;;;;5046140;28;21523;-71
2022/06/17 07:44:52;;;;;;;11.38;8.40;;;;;;;;;;5047529;28;20049;-72
2022/06/17 07:47:19;;;;;;;13.85;8.43;;;;;;;;;;5034116;28;20071;-71
2022/06/17 07:49:46;;;;;;;10.05;8.38;;;;;;;;;;5050886;28;20057;-70
2022/06/17 07:52:12;;;;;;;13.95;9.05;;;;;;;;;;5050253;28;20491;-69
2022/06/17 07:54:38;;;;;;;13.93;8.73;;;;;;;;;;5032301;28;20041;-70
2022/06/17 07:57:04;;;;;;;10.15;7.80;;;;;;;;;;5052341;28;20407;-70
2022/06/17 07:59:30;;;;;;;14.15;7.85;;;;;;;;;;5050142;28;20045;-70
2022/06/17 08:01:56;;;;;;;16.30;8.00;;;;;;;;;;5051890;28;20048;-71
2022/06/17 08:04:22;;;;;;;12.13;7.53;;;;;;;;;;5051827;28;20040;-77
2022/06/17 08:06:51;;;;;;;15.65;7.53;;;;;;;;;;5050403;28;20049;-70
2022/06/17 08:09:20;;;;;;;10.23;6.55;;;;;;;;;;5048487;28;20120;-71
2022/06/17 08:11:48;;;;;;;10.73;7.18;;;;;;;;;;5045512;28;20056;-72
2022/06/17 08:14:14;;;;;;;12.32;6.90;;;;;;;;;;5051613;28;20509;-69
2022/06/17 08:16:40;;;;;;;10.13;5.28;;;;;;;;;;5051626;28;20037;-72
2022/06/17 08:19:07;;;;;;;8.70;5.53;;;;;;;;;;5051584;28;20052;-72
2022/06/17 08:21:34;;;;;;;9.65;5.35;;;;;;;;;;5052545;28;20041;-69
2022/06/17 08:24:00;;;;;;;8.63;5.40;;;;;;;;;;5050705;28;20494;-72
2022/06/17 08:26:26;;;;;;;8.27;5.05;;;;;;;;;;5034650;28;20056;-71
2022/06/17 08:28:52;;;;;;;16.60;5.15;;;;;;;;;;5051356;28;20511;-72
2022/06/17 08:31:18;;;;;;;11.90;4.93;;;;;;;;;;5052142;28;20052;-71
2022/06/17 08:33:45;;;;;;;8.25;5.28;;;;;;;;;;5051222;28;20057;-72
2022/06/17 08:36:18;;;;;;;10.07;4.60;;;;;;;;;;5052447;28;20053;-72
2022/06/17 08:38:52;;;;;;;11.48;5.03;;;;;;;;;;5052559;28;20053;-70
2022/06/17 08:41:29;;;;;;;7.82;4.97;;;;;;;;;;5051776;28;20057;-71
2022/06/17 08:44:14;;;;;;;11.13;4.78;;;;;;;;;;5043212;28;20514;-71
2022/06/17 08:46:40;;;;;;;8.75;5.20;;;;;;;;;;5052099;28;20075;-70
2022/06/17 08:49:29;;;;;;;12.00;4.50;;;;;;;;;;5050146;28;20037;-69
2022/06/17 08:52:07;;;;;;;7.78;4.30;;;;;;;;;;5038368;28;20052;-69
2022/06/17 08:54:36;;;;;;;8.30;4.00;;;;;;;;;;5035155;28;20044;-71
2022/06/17 08:57:02;;;;;;;11.02;4.68;;;;;;;;;;5051523;28;20053;-70
2022/06/17 08:59:46;;;;;;;8.23;4.30;;;;;;;;;;5051067;28;20499;-71
2022/06/17 09:02:22;;;;;;;9.38;3.63;;;;;;;;;;5051583;28;20053;-70
2022/06/17 09:05:11;;;;;;;7.40;4.30;;;;;;;;;;5050882;28;20437;-70
2022/06/17 09:07:43;;;;;;;10.00;4.32;;;;;;;;;;5049223;28;20041;-69
2022/06/17 09:10:24;;;;;;;10.55;4.25;;;;;;;;;;5050022;28;20087;-72
2022/06/17 09:12:53;;;;;;;7.85;4.20;;;;;;;;;;5051932;28;20049;-75
2022/06/17 09:15:26;;;;;;;109.22;10.70;;;;;;;;;;5031628;28;20048;-70
2022/06/17 09:18:03;;;;;;;8.07;4.25;;;;;;;;;;5048790;28;20567;-71
2022/06/17 09:20:38;;;;;;;11.07;4.95;;;;;;;;;;5037726;28;20048;-69
2022/06/17 09:23:05;;;;;;;7.93;4.20;;;;;;;;;;5051520;28;20122;-69
2022/06/17 09:25:42;;;;;;;8.23;4.32;;;;;;;;;;5008692;28;20057;-70
2022/06/17 09:28:11;;;;;;;7.85;4.32;;;;;;;;;;5045879;28;20049;-70
2022/06/17 09:30:40;;;;;;;8.88;3.88;;;;;;;;;;5051265;28;20041;-70
2022/06/17 09:33:35;;;;;;;9.18;3.97;;;;;;;;;;5052779;28;20052;-68
2022/06/17 09:36:08;;;;;;;6.63;3.47;;;;;;;;;;4952354;29;20051;-70
2022/06/17 09:38:39;;;;;;;10.27;4.10;;;;;;;;;;4952355;28;20044;-70
2022/06/17 09:41:09;;;;;;;7.70;3.67;;;;;;;;;;4936079;29;20078;-69
2022/06/17 09:43:45;;;;;;;7.03;3.88;;;;;;;;;;4936487;29;20067;-70
2022/06/17 09:46:17;;;;;;;9.40;3.67;;;;;;;;;;4932611;29;20059;-70
2022/06/17 09:48:57;;;;;;;7.03;3.42;;;;;;;;;;4949011;29;20120;-69
2022/06/17 09:51:29;;;;;;;6.88;3.20;;;;;;;;;;4952269;28;20043;-70
2022/06/17 09:53:55;;;;;;;7.65;3.35;;;;;;;;;;4952144;29;20138;-69
2022/06/17 09:56:26;;;;;;;6.90;3.30;;;;;;;;;;4948319;29;20190;-69
2022/06/17 09:58:59;;;;;;;9.90;3.83;;;;;;;;;;4951042;28;20093;-70
2022/06/17 10:01:26;;;;;;;7.53;3.80;;;;;;;;;;4949331;28;20467;-70
2022/06/17 10:03:52;;;;;;;8.80;3.40;;;;;;;;;;4951364;28;20047;-70
2022/06/17 10:06:32;;;;;;;8.93;3.70;;;;;;;;;;4955549;28;20051;-70
2022/06/17 10:09:17;;;;;;;9.68;4.10;;;;;;;;;;4955784;29;20054;-70
2022/06/17 10:11:56;;;;;;;7.28;3.85;;;;;;;;;;4977522;28;20107;-70
2022/06/17 10:14:31;;;;;;;8.35;4.70;;;;;;;;;;5055991;28;20037;-72
2022/06/17 10:20:03;;;;;;;6.38;3.65;;;;;;;;;;5051522;28;20499;-70
2022/06/17 10:22:47;;;;;;;10.15;4.03;;;;;;;;;;5048131;28;20045;-71
2022/06/17 10:25:19;;;;;;;9.70;3.88;;;;;;;;;;5042347;28;20116;-69
2022/06/17 10:27:52;;;;;;;8.23;3.90;;;;;;;;;;5049975;28;20118;-73
2022/06/17 10:30:23;;;;;;;7.93;3.92;;;;;;;;;;5032116;28;20095;-71
2022/06/17 10:32:50;;;;;;;9.00;4.18;;;;;;;;;;5033987;28;20036;-71
2022/06/17 10:35:31;;;;;;;8.43;3.50;;;;;;;;;;5033947;28;20383;-76
2022/06/17 10:38:01;;;;;;;11.52;3.78;;;;;;;;;;5054900;28;20067;-70
2022/06/17 10:40:29;;;;;;;10.48;4.57;;;;;;;;;;5052708;28;20091;-70
2022/06/17 10:42:57;;;;;;;8.57;3.60;;;;;;;;;;5055295;28;20128;-71
2022/06/17 10:45:24;;;;;;;12.25;3.85;;;;;;;;;;5037320;28;20053;-70
2022/06/17 10:47:56;;;;;;;9.02;3.33;;;;;;;;;;5054605;28;20052;-71
2022/06/17 10:50:27;;;;;;;7.15;3.60;;;;;;;;;;5054023;28;20045;-70
2022/06/17 10:52:56;;;;;;;7.20;3.67;;;;;;;;;;5036222;28;20041;-70
2022/06/17 10:55:26;;;;;;;7.25;3.88;;;;;;;;;;5052550;28;20079;-70
2022/06/17 10:58:13;;;;;;;11.95;3.78;;;;;;;;;;5050269;28;20042;-70
2022/06/17 11:00:43;;;;;;;10.43;3.58;;;;;;;;;;5050182;28;20045;-71
2022/06/17 11:03:17;;;;;;;8.68;3.83;;;;;;;;;;5028326;28;20076;-72
2022/06/17 11:05:52;;;;;;;9.77;3.47;;;;;;;;;;5055233;28;20060;-69
2022/06/17 11:08:24;;;;;;;6.63;3.38;;;;;;;;;;5052224;28;20102;-70
2022/06/17 11:10:53;;;;;;;6.50;3.38;;;;;;;;;;5054801;28;20045;-71
2022/06/17 11:13:20;;;;;;;10.10;3.70;;;;;;;;;;5036987;28;20373;-71
2022/06/17 11:15:48;;;;;;;7.43;3.58;;;;;;;;;;5051963;28;20049;-71
2022/06/17 11:18:17;;;;;;;7.68;3.95;;;;;;;;;;5054038;28;20055;-70
2022/06/17 11:20:52;;;;;;;7.32;2.97;;;;;;;;;;5052757;28;20053;-70
2022/06/17 11:23:21;;;;;;;7.88;3.55;;;;;;;;;;5054793;28;20056;-70
2022/06/17 11:25:47;;;;;;;6.65;3.50;;;;;;;;;;5054603;28;20108;-71
2022/06/17 11:28:32;;;;;;;6.63;3.97;;;;;;;;;;5036862;28;20094;-71
2022/06/17 11:30:59;;;;;;;9.23;3.72;;;;;;;;;;5053723;28;20049;-71
2022/06/17 11:33:28;;;;;;;8.05;3.45;;;;;;;;;;5054404;28;20056;-71
2022/06/17 11:35:59;;;;;;;8.57;4.18;;;;;;;;;;5053790;28;20040;-71
2022/06/17 11:38:26;;;;;;;10.50;4.30;;;;;;;;;;5053484;28;20045;-71
2022/06/17 11:40:55;;;;;;;9.98;4.88;;;;;;;;;;5054029;28;20586;-71
2022/06/17 11:43:34;;;;;;;9.70;3.97;;;;;;;;;;5054133;28;20406;-71
2022/06/17 11:46:12;;;;;;;12.77;4.40;;;;;;;;;;5054032;28;20530;-71
2022/06/17 11:48:42;;;;;;;9.05;4.63;;;;;;;;;;5019751;28;20040;-71
2022/06/17 11:51:11;;;;;;;7.03;4.00;;;;;;;;;;5051878;28;20087;-71
2022/06/17 11:53:45;;;;;;;9.85;4.07;;;;;;;;;;5051760;28;20052;-70
2022/06/17 11:56:11;;;;;;;7.35;3.92;;;;;;;;;;5052168;28;20499;-70
2022/06/17 11:58:58;;;;;;;9.98;3.78;;;;;;;;;;5053988;28;20041;-70
2022/06/17 12:01:24;;;;;;;10.52;4.00;;;;;;;;;;5053588;28;20086;-70
2022/06/17 12:03:50;;;;;;;8.95;3.65;;;;;;;;;;5035938;28;20049;-70
2022/06/17 12:06:21;;;;;;;10.00;3.42;;;;;;;;;;5053776;28;20049;-71
2022/06/17 12:08:47;;;;;;;;;;;;;;;;;;5054293;28;20103;-70
2022/06/17 12:11:26;;;;;;;8.10;3.20;;;;;;;;;;5051003;28;20438;-71
2022/06/17 12:13:56;;;;;;;9.18;3.28;;;;;;;;;;5053750;28;20044;-71
2022/06/17 12:16:31;;;;;;;8.90;3.28;;;;;;;;;;5053554;28;20049;-71
2022/06/17 12:18:58;;;;;;;7.63;3.35;;;;;;;;;;5050936;28;20424;-71
2022/06/17 12:21:33;;;;;;;8.82;3.58;;;;;;;;;;5048799;28;20048;-70
2022/06/17 12:23:59;;;;;;;9.75;3.10;;;;;;;;;;5051829;28;20079;-71
2022/06/17 12:26:32;;;;;;;9.48;3.47;;;;;;;;;;5032836;28;20053;-71
2022/06/17 12:29:15;;;;;;;8.82;3.47;;;;;;;;;;5044623;28;20522;-71
2022/06/17 12:32:07;;;;;;;8.25;3.47;;;;;;;;;;5051627;28;20526;-70
2022/06/17 12:34:51;;;;;;;6.20;3.35;;;;;;;;;;5022627;28;20529;-71
2022/06/17 12:37:36;;;;;;;6.25;2.75;;;;;;;;;;5052179;28;20041;-71
2022/06/17 12:40:02;;;;;;;7.72;3.05;;;;;;;;;;5051323;28;20462;-71
2022/06/17 12:42:41;;;;;;;5.95;2.67;;;;;;;;;;5052540;28;20107;-71
2022/06/17 12:45:14;;;;;;;8.63;3.00;;;;;;;;;;5050421;28;20049;-70
2022/06/17 12:47:42;;;;;;;8.20;3.08;;;;;;;;;;5043450;28;20053;-70
2022/06/17 12:53:15;;;;;;;9.63;3.10;;;;;;;;;;5052441;28;20123;-71
2022/06/17 12:55:44;;;;;;;10.98;3.42;;;;;;;;;;5051632;28;20087;-70
2022/06/17 12:58:19;;;;;;;10.40;2.63;;;;;;;;;;5052317;28;20046;-70
2022/06/17 13:00:48;;;;;;;6.03;2.55;;;;;;;;;;5051858;28;20063;-71
2022/06/17 13:03:17;;;;;;;6.13;2.70;;;;;;;;;;5038156;28;20041;-71
2022/06/17 13:05:45;;;;;;;10.27;2.90;;;;;;;;;;5047637;28;20068;-70
2022/06/17 13:08:29;;;;;;;7.90;3.47;;;;;;;;;;5052777;28;20048;-70
2022/06/17 13:11:01;;;;;;;6.97;3.05;;;;;;;;;;5051044;28;20041;-70
2022/06/17 13:13:27;;;;;;;6.43;2.67;;;;;;;;;;5051539;28;20044;-71
2022/06/17 13:15:55;;;;;;;7.85;3.20;;;;;;;;;;5052767;28;20041;-70
2022/06/17 13:18:27;;;;;;;7.35;2.85;;;;;;;;;;5051865;28;20098;-72
2022/06/17 13:20:59;;;;;;;8.25;3.33;;;;;;;;;;5052135;28;20044;-70
2022/06/17 13:23:32;;;;;;;13.70;3.38;;;;;;;;;;5051901;28;20053;-71
2022/06/17 13:26:03;;;;;;;10.25;3.17;;;;;;;;;;5050824;28;20403;-71
2022/06/17 13:28:38;;;;;;;8.68;3.00;;;;;;;;;;5016968;28;20381;-71
2022/06/17 13:31:13;;;;;;;7.25;3.10;;;;;;;;;;5032748;28;20080;-71
2022/06/17 13:33:44;;;;;;;6.50;2.70;;;;;;;;;;5043169;28;20597;-71
2022/06/17 13:36:13;;;;;;;6.70;2.80;;;;;;;;;;5050718;28;20522;-71
2022/06/17 13:39:00;;;;;;;8.45;2.90;;;;;;;;;;5049177;28;20045;-71
2022/06/17 13:41:35;;;;;;;8.85;2.78;;;;;;;;;;5052252;28;20503;-71
2022/06/17 13:44:01;;;;;;;12.13;3.33;;;;;;;;;;5053670;28;20037;-70
2022/06/17 13:46:29;;;;;;;8.25;3.25;;;;;;;;;;5054580;28;20036;-70
2022/06/17 13:49:11;;;;;;;6.93;2.70;;;;;;;;;;5053298;28;20052;-70
2022/06/17 13:51:49;;;;;;;8.50;2.72;;;;;;;;;;5006001;28;20048;-70
2022/06/17 13:54:33;;;;;;;7.57;3.15;;;;;;;;;;5055681;28;20403;-71
2022/06/17 13:57:08;;;;;;;6.40;2.92;;;;;;;;;;5056114;28;20395;-70
2022/06/17 13:59:40;;;;;;;8.75;2.70;;;;;;;;;;5056265;28;20048;-71
2022/06/17 14:02:19;;;;;;;6.18;3.13;;;;;;;;;;5054510;28;20403;-70
2022/06/17 14:05:06;;;;;;;8.88;3.33;;;;;;;;;;5046512;28;20114;-70
2022/06/17 14:07:51;;;;;;;7.13;3.05;;;;;;;;;;5054153;28;20564;-71
2022/06/17 14:10:26;;;;;;;8.38;2.83;;;;;;;;;;5037945;28;20047;-71
2022/06/17 14:12:52;;;;;;;8.52;3.28;;;;;;;;;;5054780;28;20076;-71
2022/06/17 14:15:21;;;;;;;9.10;2.88;;;;;;;;;;5055113;28;20090;-71
2022/06/17 14:17:54;;;;;;;6.00;2.83;;;;;;;;;;5055027;28;20394;-71
2022/06/17 14:20:27;;;;;;;6.10;2.80;;;;;;;;;;5037898;28;20045;-71
2022/06/17 14:23:19;;;;;;;9.30;3.03;;;;;;;;;;5052179;28;20053;-71
2022/06/17 14:25:48;;;;;;;6.38;2.88;;;;;;;;;;5007820;28;20057;-71
2022/06/17 14:28:31;;;;;;;7.20;2.80;;;;;;;;;;5054349;28;20049;-71
2022/06/17 14:31:12;;;;;;;9.68;3.00;;;;;;;;;;5055754;28;20057;-70
2022/06/17 14:34:01;;;;;;;8.00;2.90;;;;;;;;;;5055584;28;20128;-70
2022/06/17 14:37:00;;;;;;;7.13;2.80;;;;;;;;;;5037570;28;20083;-70
2022/06/17 14:39:31;;;;;;;11.25;3.42;;;;;;;;;;5016548;28;20534;-70
2022/06/17 14:42:16;;;;;;;12.65;3.10;;;;;;;;;;5046896;28;20134;-70
2022/06/17 14:44:48;;;;;;;6.93;2.65;;;;;;;;;;5043461;28;20513;-71
2022/06/17 14:47:31;;;;;;;7.38;2.92;;;;;;;;;;5054325;28;20487;-70
2022/06/17 14:49:58;;;;;;;8.57;3.13;;;;;;;;;;5054262;28;20069;-71
2022/06/17 14:52:26;;;;;;;9.02;2.97;;;;;;;;;;5055521;28;20037;-69
2022/06/17 14:55:02;;;;;;;7.68;3.05;;;;;;;;;;5054533;28;20037;-71
2022/06/17 14:57:30;;;;;;;8.63;2.78;;;;;;;;;;5041532;28;20163;-71
2022/06/17 15:00:11;;;;;;;8.52;3.10;;;;;;;;;;5036947;28;20060;-71
2022/06/17 15:02:40;;;;;;;7.53;2.60;;;;;;;;;;5055071;28;20041;-71
2022/06/17 15:05:16;;;;;;;9.00;3.15;;;;;;;;;;5053163;28;20508;-71